createdAt,value
2019-04-30T00:01:24.783Z,-85
2019-04-30T00:04:15.869Z,-84
2019-04-30T00:06:47.740Z,-84
2019-04-30T00:09:22.872Z,-83
2019-04-30T00:11:57.994Z,-84
2019-04-30T00:14:37.279Z,-83
2019-04-30T00:17:01.757Z,-84
2019-04-30T00:19:33.547Z,-83
2019-04-30T00:22:05.701Z,-83
2019-04-30T00:24:39.924Z,-85
2019-04-30T00:27:11.906Z,-82
2019-04-30T00:29:45.670Z,-83
2019-04-30T00:32:17.539Z,-82
2019-04-30T00:34:49.608Z,-83
2019-04-30T00:37:22.359Z,-81
2019-04-30T00:39:55.548Z,-84
2019-04-30T00:42:28.869Z,-83
2019-04-30T00:45:06.587Z,-84
2019-04-30T00:47:39.428Z,-82
2019-04-30T00:50:10.134Z,-83
2019-04-30T00:52:41.957Z,-85
2019-04-30T00:55:15.055Z,-83
2019-04-30T00:57:47.538Z,-85
2019-04-30T01:00:25.311Z,-84
2019-04-30T01:03:05.981Z,-83
2019-04-30T01:05:35.457Z,-84
2019-04-30T01:08:09.227Z,-84
2019-04-30T01:10:41.018Z,-84
2019-04-30T01:13:12.926Z,-82
2019-04-30T01:15:49.015Z,-83
2019-04-30T01:18:19.268Z,-83
2019-04-30T01:20:51.162Z,-83
2019-04-30T01:23:23.266Z,-84
2019-04-30T01:25:55.425Z,-82
2019-04-30T01:28:28.408Z,-82
2019-04-30T01:31:01.994Z,-83
2019-04-30T01:33:34.777Z,-83
2019-04-30T01:36:09.691Z,-83
2019-04-30T01:38:44.837Z,-82
2019-04-30T01:41:14.925Z,-84
2019-04-30T01:43:48.606Z,-83
2019-04-30T01:46:21.217Z,-83
2019-04-30T01:48:53.061Z,-83
2019-04-30T01:51:25.133Z,-84
2019-04-30T01:53:56.966Z,-83
2019-04-30T01:56:42.982Z,-83
2019-04-30T01:59:25.095Z,-84
2019-04-30T02:01:58.510Z,-83
2019-04-30T02:04:31.449Z,-83
2019-04-30T02:07:04.006Z,-83
2019-04-30T02:09:35.851Z,-83
2019-04-30T02:12:09.396Z,-83
2019-04-30T02:14:41.900Z,-83
2019-04-30T02:17:13.957Z,-83
2019-04-30T02:19:56.406Z,-83
2019-04-30T02:22:19.724Z,-82
2019-04-30T02:24:51.846Z,-83
2019-04-30T02:27:23.929Z,-83
2019-04-30T02:29:56.053Z,-84
2019-04-30T02:32:30.401Z,-83
2019-04-30T02:35:09.741Z,-83
2019-04-30T02:38:00.784Z,-83
2019-04-30T02:40:34.773Z,-83
2019-04-30T02:43:09.162Z,-83
2019-04-30T02:45:42.219Z,-84
2019-04-30T02:48:14.953Z,-83
2019-04-30T02:50:49.106Z,-83
2019-04-30T02:54:11.179Z,-83
2019-04-30T02:56:44.995Z,-83
2019-04-30T02:59:16.814Z,-84
2019-04-30T03:01:50.145Z,-84
2019-04-30T03:04:22.135Z,-84
2019-04-30T03:06:54.361Z,-84
2019-04-30T03:09:26.430Z,-83
2019-04-30T03:12:00.178Z,-83
2019-04-30T03:14:32.190Z,-84
2019-04-30T03:17:12.664Z,-83
2019-04-30T03:19:53.119Z,-83
2019-04-30T03:22:27.017Z,-84
2019-04-30T03:24:59.865Z,-83
2019-04-30T03:27:32.241Z,-83
2019-04-30T03:30:04.791Z,-83
2019-04-30T03:32:42.603Z,-84
2019-04-30T03:35:12.751Z,-84
2019-04-30T03:37:44.825Z,-83
2019-04-30T03:40:16.599Z,-84
2019-04-30T03:42:49.388Z,-83
2019-04-30T03:45:21.303Z,-83
2019-04-30T03:47:53.414Z,-83
2019-04-30T03:50:25.593Z,-83
2019-04-30T03:53:00.458Z,-83
2019-04-30T03:55:31.533Z,-83
2019-04-30T03:58:03.710Z,-84
2019-04-30T04:00:51.557Z,-84
2019-04-30T04:03:23.381Z,-83
2019-04-30T04:06:12.754Z,-84
2019-04-30T04:09:00.225Z,-83
2019-04-30T04:11:36.724Z,-83
2019-04-30T04:14:09.368Z,-84
2019-04-30T04:16:41.318Z,-83
2019-04-30T04:19:13.167Z,-83
2019-04-30T04:21:45.239Z,-83
2019-04-30T04:24:20.199Z,-83
2019-04-30T04:26:51.514Z,-83
2019-04-30T04:29:23.704Z,-82
2019-04-30T04:31:56.164Z,-83
2019-04-30T04:34:30.236Z,-83
2019-04-30T04:37:01.784Z,-82
2019-04-30T04:39:34.155Z,-83
2019-04-30T04:42:06.266Z,-82
2019-04-30T04:44:39.950Z,-83
2019-04-30T04:47:12.563Z,-83
2019-04-30T04:49:45.834Z,-83
2019-04-30T04:52:21.048Z,-83
2019-04-30T04:54:51.590Z,-83
2019-04-30T04:57:23.385Z,-82
2019-04-30T04:59:55.940Z,-82
2019-04-30T05:02:33.389Z,-83
2019-04-30T05:05:05.540Z,-83
2019-04-30T05:07:37.364Z,-83
2019-04-30T05:10:11.061Z,-83
2019-04-30T05:12:43.163Z,-83
2019-04-30T05:15:15.229Z,-84
2019-04-30T05:17:47.034Z,-83
2019-04-30T05:20:19.585Z,-83
2019-04-30T05:22:51.708Z,-83
2019-04-30T05:25:23.855Z,-83
2019-04-30T05:27:55.950Z,-83
2019-04-30T05:30:29.519Z,-84
2019-04-30T05:33:01.434Z,-83
2019-04-30T05:35:33.282Z,-84
2019-04-30T05:38:05.358Z,-84
2019-04-30T05:40:37.289Z,-83
2019-04-30T05:43:11.234Z,-84
2019-04-30T05:45:42.629Z,-83
2019-04-30T05:48:14.437Z,-84
2019-04-30T05:50:46.280Z,-85
2019-04-30T05:53:19.183Z,-85
2019-04-30T05:55:51.912Z,-84
2019-04-30T05:58:23.717Z,-84
2019-04-30T06:00:55.859Z,-85
2019-04-30T06:03:32.756Z,-85
2019-04-30T06:06:01.833Z,-85
2019-04-30T06:08:43.456Z,-85
2019-04-30T06:11:33.359Z,-85
2019-04-30T06:14:28.584Z,-85
2019-04-30T06:17:09.752Z,-87
2019-04-30T06:19:41.847Z,-87
2019-04-30T06:22:13.780Z,-86
2019-04-30T06:24:45.582Z,-87
2019-04-30T06:27:19.109Z,-86
2019-04-30T06:29:51.482Z,-87
2019-04-30T06:32:25.235Z,-86
2019-04-30T06:34:59.217Z,-87
2019-04-30T06:37:31.780Z,-86
2019-04-30T06:40:03.581Z,-87
2019-04-30T06:42:39.331Z,-87
2019-04-30T06:45:11.224Z,-87
2019-04-30T06:47:43.195Z,-87
2019-04-30T06:50:15.078Z,-87
2019-04-30T06:52:56.660Z,-87
2019-04-30T06:55:20.605Z,-86
2019-04-30T06:57:53.078Z,-86
2019-04-30T07:00:36.279Z,-87
2019-04-30T07:03:09.611Z,-87
2019-04-30T07:05:42.051Z,-87
2019-04-30T07:08:39.154Z,-87
2019-04-30T07:11:42.562Z,-87
2019-04-30T07:14:14.634Z,-87
2019-04-30T07:16:46.456Z,-87
2019-04-30T07:19:29.934Z,-87
2019-04-30T07:21:51.975Z,-87
2019-04-30T07:24:23.881Z,-87
2019-04-30T07:27:01.046Z,-87
2019-04-30T07:29:29.604Z,-87
2019-04-30T07:32:02.209Z,-87
2019-04-30T07:34:37.060Z,-87
2019-04-30T07:37:16.309Z,-87
2019-04-30T07:39:41.811Z,-87
2019-04-30T07:42:13.708Z,-87
2019-04-30T07:44:45.716Z,-86
2019-04-30T07:47:19.407Z,-87
2019-04-30T07:49:55.031Z,-86
2019-04-30T07:52:26.729Z,-87
2019-04-30T07:55:00.734Z,-86
2019-04-30T07:57:33.175Z,-87
2019-04-30T08:00:05.656Z,-87
2019-04-30T08:02:43.730Z,-86
2019-04-30T08:05:29.720Z,-85
2019-04-30T08:08:16.757Z,-86
2019-04-30T08:10:35.055Z,-86
2019-04-30T08:13:13.716Z,-87
2019-04-30T08:15:42.370Z,-86
2019-04-30T08:18:14.313Z,-85
2019-04-30T08:20:46.450Z,-86
2019-04-30T08:23:33.103Z,-88
2019-04-30T08:25:52.281Z,-86
2019-04-30T08:28:24.119Z,-86
2019-04-30T08:30:56.336Z,-88
2019-04-30T08:33:29.178Z,-88
2019-04-30T08:36:01.186Z,-86
2019-04-30T08:38:33.270Z,-86
2019-04-30T08:41:05.825Z,-86
2019-04-30T08:43:39.442Z,-87
2019-04-30T08:46:11.373Z,-87
2019-04-30T08:48:50.525Z,-86
2019-04-30T08:51:18.768Z,-87
2019-04-30T08:53:50.458Z,-87
2019-04-30T08:56:22.645Z,-86
2019-04-30T08:58:55.293Z,-88
2019-04-30T09:01:29.203Z,-86
2019-04-30T09:04:00.688Z,-87
2019-04-30T09:06:32.525Z,-88
2019-04-30T09:09:21.992Z,-89
2019-04-30T09:11:55.933Z,-88
2019-04-30T09:14:29.805Z,-87
2019-04-30T09:17:02.074Z,-88
2019-04-30T09:19:33.907Z,-88
2019-04-30T09:22:14.354Z,-88
2019-04-30T09:24:39.686Z,-87
2019-04-30T09:27:11.542Z,-87
2019-04-30T09:29:44.649Z,-88
2019-04-30T09:32:16.702Z,-88
2019-04-30T09:34:48.940Z,-88
2019-04-30T09:37:21.148Z,-87
2019-04-30T09:39:52.968Z,-87
2019-04-30T09:42:24.826Z,-87
2019-04-30T09:44:57.793Z,-87
2019-04-30T09:47:30.478Z,-87
2019-04-30T09:50:02.319Z,-87
2019-04-30T09:52:36.106Z,-87
2019-04-30T09:55:09.609Z,-87
2019-04-30T09:57:42.242Z,-87
2019-04-30T10:00:14.768Z,-87
2019-04-30T10:02:48.726Z,-87
2019-04-30T10:05:20.746Z,-87
2019-04-30T10:07:52.983Z,-87
2019-04-30T10:10:29.929Z,-87
2019-04-30T10:13:01.795Z,-87
2019-04-30T10:15:55.681Z,-87
2019-04-30T10:18:27.540Z,-87
2019-04-30T10:21:00.933Z,-87
2019-04-30T10:23:33.224Z,-87
2019-04-30T10:26:05.214Z,-87
2019-04-30T10:28:41.823Z,-87
2019-04-30T10:31:13.851Z,-87
2019-04-30T10:33:48.457Z,-88
2019-04-30T10:36:21.172Z,-87
2019-04-30T10:38:53.312Z,-87
2019-04-30T10:41:25.526Z,-87
2019-04-30T10:43:59.120Z,-87
2019-04-30T10:46:31.312Z,-87
2019-04-30T10:49:03.315Z,-87
2019-04-30T10:51:35.322Z,-87
2019-04-30T10:54:08.848Z,-86
2019-04-30T10:56:40.997Z,-89
2019-04-30T10:59:12.853Z,-87
2019-04-30T11:01:45.355Z,-87
2019-04-30T11:04:19.557Z,-87
2019-04-30T11:06:51.678Z,-87
2019-04-30T11:09:24.192Z,-86
2019-04-30T11:11:56.135Z,-87
2019-04-30T11:14:28.417Z,-86
2019-04-30T11:17:00.599Z,-86
2019-04-30T11:19:33.100Z,-88
2019-04-30T11:22:05.163Z,-88
2019-04-30T11:24:53.423Z,-89
2019-04-30T11:27:12.169Z,-88
2019-04-30T11:29:44.737Z,-88
2019-04-30T11:32:20.750Z,-88
2019-04-30T11:34:52.727Z,-88
2019-04-30T11:37:24.953Z,-86
2019-04-30T11:39:57.161Z,-85
2019-04-30T11:42:32.082Z,-86
2019-04-30T11:45:03.239Z,-88
2019-04-30T11:47:36.648Z,-87
2019-04-30T11:50:11.865Z,-86
2019-04-30T11:52:43.933Z,-88
2019-04-30T11:55:19.242Z,-88
2019-04-30T11:57:50.859Z,-88
2019-04-30T12:00:29.646Z,-88
2019-04-30T12:03:01.652Z,-88
2019-04-30T12:05:33.657Z,-87
2019-04-30T12:08:22.519Z,-88
2019-04-30T12:11:25.625Z,-88
2019-04-30T12:13:57.818Z,-88
2019-04-30T12:16:29.727Z,-88
2019-04-30T12:19:01.822Z,-89
2019-04-30T12:21:33.941Z,-88
2019-04-30T12:24:05.983Z,-87
2019-04-30T12:26:38.901Z,-87
2019-04-30T12:29:11.227Z,-88
2019-04-30T12:31:43.910Z,-88
2019-04-30T12:34:15.715Z,-86
2019-04-30T12:36:49.621Z,-89
2019-04-30T12:39:21.064Z,-89
2019-04-30T12:41:53.190Z,-88
2019-04-30T12:44:25.278Z,-88
2019-04-30T12:46:58.622Z,-89
2019-04-30T12:49:48.430Z,-87
2019-04-30T12:52:26.062Z,-88
2019-04-30T12:55:26.114Z,-89
2019-04-30T12:57:59.602Z,-88
2019-04-30T13:00:32.156Z,-88
2019-04-30T13:03:04.786Z,-88
2019-04-30T13:05:37.150Z,-89
2019-04-30T13:08:10.136Z,-87
2019-04-30T13:10:42.742Z,-86
2019-04-30T13:13:15.730Z,-88
2019-04-30T13:15:47.789Z,-89
2019-04-30T13:18:20.301Z,-88
2019-04-30T13:20:52.495Z,-89
2019-04-30T13:23:24.966Z,-90
2019-04-30T13:25:58.492Z,-88
2019-04-30T13:28:32.745Z,-88
2019-04-30T13:31:04.548Z,-89
2019-04-30T13:33:42.292Z,-89
2019-04-30T13:36:14.939Z,-89
2019-04-30T13:39:01.695Z,-87
2019-04-30T13:42:01.793Z,-89
2019-04-30T13:44:39.440Z,-89
2019-04-30T13:47:11.285Z,-88
2019-04-30T13:49:43.144Z,-88
2019-04-30T13:52:15.075Z,-88
2019-04-30T13:54:47.568Z,-88
2019-04-30T13:57:20.059Z,-88
2019-04-30T13:59:52.290Z,-88
2019-04-30T14:02:24.109Z,-89
2019-04-30T14:05:04.493Z,-88
2019-04-30T14:07:59.838Z,-88
2019-04-30T14:10:36.658Z,-87
2019-04-30T14:13:09.673Z,-89
2019-04-30T14:15:41.742Z,-86
2019-04-30T14:18:27.388Z,-85
2019-04-30T14:20:48.505Z,-88
2019-04-30T14:23:20.327Z,-86
2019-04-30T14:25:56.656Z,-89
2019-04-30T14:28:26.377Z,-88
2019-04-30T14:30:58.489Z,-88
2019-04-30T14:33:30.308Z,-87
2019-04-30T14:36:15.787Z,-88
2019-04-30T14:38:48.890Z,-88
2019-04-30T14:41:22.281Z,-90
2019-04-30T14:44:00.755Z,-90
2019-04-30T14:46:55.603Z,-91
2019-04-30T14:50:01.885Z,-89
2019-04-30T14:52:27.108Z,-89
2019-04-30T14:55:30.251Z,-88
2019-04-30T14:58:20.420Z,-90
2019-04-30T15:01:02.071Z,-90
2019-04-30T15:03:34.032Z,-91
2019-04-30T15:06:06.377Z,-89
2019-04-30T15:08:39.363Z,-91
2019-04-30T15:11:11.501Z,-90
2019-04-30T15:13:44.128Z,-89
2019-04-30T15:16:16.227Z,-90
2019-04-30T15:18:48.749Z,-90
2019-04-30T15:21:20.861Z,-90
2019-04-30T15:24:19.274Z,-90
2019-04-30T15:26:57.754Z,-90
2019-04-30T15:29:24.891Z,-91
2019-04-30T15:31:59.122Z,-89
2019-04-30T15:34:30.542Z,-89
2019-04-30T15:37:02.727Z,-89
2019-04-30T15:39:39.266Z,-90
2019-04-30T15:42:12.414Z,-91
2019-04-30T15:44:45.837Z,-90
2019-04-30T15:47:19.070Z,-89
2019-04-30T15:49:51.079Z,-90
2019-04-30T15:52:23.249Z,-90
2019-04-30T15:54:55.094Z,-90
2019-04-30T15:57:26.903Z,-90
2019-04-30T15:59:59.475Z,-90
2019-04-30T16:02:56.948Z,-88
2019-04-30T16:05:35.064Z,-89
2019-04-30T16:08:41.793Z,-88
2019-04-30T16:11:41.945Z,-87
2019-04-30T16:14:26.978Z,-88
2019-04-30T16:17:06.591Z,-89
2019-04-30T16:19:39.108Z,-89
2019-04-30T16:22:14.777Z,-89
2019-04-30T16:24:46.643Z,-90
2019-04-30T16:27:19.927Z,-89
2019-04-30T16:29:51.868Z,-89
2019-04-30T16:32:24.321Z,-88
2019-04-30T16:34:56.415Z,-89
2019-04-30T16:37:28.813Z,-89
2019-04-30T16:40:00.645Z,-89
2019-04-30T16:42:32.874Z,-88
2019-04-30T16:45:04.936Z,-88
2019-04-30T16:47:37.056Z,-89
2019-04-30T16:50:09.766Z,-89
2019-04-30T16:52:41.923Z,-89
2019-04-30T16:55:14.412Z,-89
2019-04-30T16:57:46.395Z,-90
2019-04-30T17:00:20.116Z,-89
2019-04-30T17:02:57.209Z,-89
2019-04-30T17:05:39.470Z,-89
2019-04-30T17:08:29.038Z,-89
2019-04-30T17:11:09.210Z,-89
2019-04-30T17:13:45.241Z,-89
2019-04-30T17:16:19.652Z,-89
2019-04-30T17:18:51.944Z,-89
2019-04-30T17:21:24.021Z,-88
2019-04-30T17:23:55.869Z,-89
2019-04-30T17:26:27.804Z,-90
2019-04-30T17:29:00.103Z,-89
2019-04-30T17:31:31.927Z,-89
2019-04-30T17:34:04.166Z,-89
2019-04-30T17:36:36.260Z,-89
2019-04-30T17:39:13.075Z,-89
2019-04-30T17:41:44.904Z,-89
2019-04-30T17:44:18.668Z,-89
2019-04-30T17:46:50.656Z,-89
2019-04-30T17:49:22.534Z,-88
2019-04-30T17:51:54.344Z,-89
2019-04-30T17:54:26.290Z,-89
2019-04-30T17:56:58.109Z,-89
2019-04-30T17:59:30.240Z,-89
2019-04-30T18:02:04.040Z,-88
2019-04-30T18:04:35.893Z,-89
2019-04-30T18:07:09.949Z,-89
2019-04-30T18:09:42.177Z,-89
2019-04-30T18:12:13.989Z,-89
2019-04-30T18:14:45.846Z,-89
2019-04-30T18:17:17.712Z,-89
2019-04-30T18:20:15.059Z,-89
2019-04-30T18:23:04.562Z,-89
2019-04-30T18:25:44.334Z,-89
2019-04-30T18:28:16.514Z,-88
2019-04-30T18:30:49.144Z,-88
2019-04-30T18:33:21.327Z,-88
2019-04-30T18:35:53.493Z,-89
2019-04-30T18:38:25.319Z,-88
2019-04-30T18:40:59.396Z,-89
2019-04-30T18:43:31.326Z,-88
2019-04-30T18:46:04.046Z,-88
2019-04-30T18:48:35.871Z,-88
2019-04-30T18:51:23.677Z,-89
2019-04-30T18:53:41.562Z,-89
2019-04-30T18:56:14.867Z,-88
2019-04-30T18:58:48.688Z,-89
2019-04-30T19:01:20.753Z,-88
2019-04-30T19:03:52.840Z,-88
2019-04-30T19:06:26.697Z,-88
2019-04-30T19:09:32.915Z,-88
2019-04-30T19:12:35.724Z,-88
2019-04-30T19:15:48.607Z,-88
2019-04-30T19:18:40.624Z,-88
2019-04-30T19:21:12.575Z,-88
2019-04-30T19:23:44.710Z,-88
2019-04-30T19:26:16.541Z,-88
2019-04-30T19:28:49.325Z,-88
2019-04-30T19:31:21.485Z,-88
2019-04-30T19:33:53.346Z,-88
2019-04-30T19:36:35.074Z,-88
2019-04-30T19:38:59.769Z,-88
2019-04-30T19:41:32.159Z,-88
2019-04-30T19:44:04.291Z,-88
2019-04-30T19:46:36.267Z,-88
2019-04-30T19:49:09.827Z,-88
2019-04-30T19:51:41.830Z,-88
2019-04-30T19:54:13.690Z,-88
2019-04-30T19:56:45.875Z,-88
2019-04-30T19:59:19.348Z,-88
2019-04-30T20:01:51.553Z,-88
2019-04-30T20:04:33.093Z,-88
2019-04-30T20:06:59.144Z,-88
2019-04-30T20:09:31.704Z,-88
2019-04-30T20:12:03.517Z,-88
2019-04-30T20:14:36.431Z,-88
2019-04-30T20:17:08.926Z,-88
2019-04-30T20:19:40.750Z,-87
2019-04-30T20:22:12.702Z,-87
2019-04-30T20:24:45.467Z,-88
2019-04-30T20:27:19.019Z,-88
2019-04-30T20:29:51.781Z,-88
2019-04-30T20:32:35.391Z,-88
2019-04-30T20:34:59.674Z,-89
2019-04-30T20:37:31.280Z,-89
2019-04-30T20:40:12.459Z,-88
2019-04-30T20:42:44.265Z,-88
2019-04-30T20:45:16.505Z,-88
2019-04-30T20:47:49.624Z,-88
2019-04-30T20:50:21.954Z,-87
2019-04-30T20:52:54.454Z,-88
2019-04-30T20:55:26.779Z,-88
2019-04-30T20:57:59.467Z,-89
2019-04-30T21:00:32.057Z,-88
2019-04-30T21:03:04.608Z,-88
2019-04-30T21:11:12.025Z,-88
2019-04-30T21:13:44.169Z,-89
2019-04-30T21:16:16.877Z,-88
2019-04-30T21:18:49.342Z,-88
2019-04-30T21:21:21.329Z,-88
2019-04-30T21:23:53.466Z,-87
2019-04-30T21:26:26.034Z,-88
2019-04-30T21:29:10.415Z,-88
2019-04-30T21:31:50.803Z,-88
2019-04-30T21:34:41.617Z,-87
2019-04-30T21:37:13.845Z,-88
2019-04-30T21:39:45.704Z,-87
2019-04-30T21:42:18.202Z,-87
2019-04-30T21:44:50.712Z,-87
2019-04-30T21:47:23.048Z,-88
2019-04-30T21:49:55.256Z,-88
2019-04-30T21:52:27.489Z,-88
2019-04-30T21:54:59.666Z,-88
2019-04-30T21:57:31.823Z,-87
2019-04-30T22:00:04.533Z,-88
2019-04-30T22:02:38.371Z,-88
2019-04-30T22:05:10.662Z,-88
2019-04-30T22:07:43.801Z,-88
2019-04-30T22:10:19.011Z,-88
2019-04-30T22:12:50.969Z,-88
2019-04-30T22:15:23.125Z,-88
2019-04-30T22:17:55.188Z,-88
2019-04-30T22:20:29.067Z,-88
2019-04-30T22:23:00.593Z,-88
2019-04-30T22:25:32.409Z,-89
2019-04-30T22:28:04.270Z,-88
2019-04-30T22:30:36.362Z,-88
2019-04-30T22:33:10.828Z,-88
2019-04-30T22:35:49.349Z,-88
2019-04-30T22:38:25.351Z,-87
2019-04-30T22:40:58.849Z,-87
2019-04-30T22:43:31.149Z,-88
2019-04-30T22:46:09.747Z,-89
2019-04-30T22:48:41.793Z,-88
2019-04-30T22:51:13.622Z,-88
2019-04-30T22:53:45.935Z,-88
2019-04-30T22:56:17.796Z,-88
2019-04-30T22:58:49.695Z,-88
2019-04-30T23:01:50.446Z,-83
2019-04-30T23:04:47.344Z,-83
2019-04-30T23:07:19.156Z,-82
2019-04-30T23:09:51.285Z,-82
2019-04-30T23:12:23.101Z,-85
2019-04-30T23:14:55.041Z,-84
2019-04-30T23:17:27.125Z,-84
2019-04-30T23:19:59.790Z,-83
2019-04-30T23:22:31.600Z,-83
2019-04-30T23:25:03.822Z,-83
2019-04-30T23:27:35.629Z,-83
2019-04-30T23:30:08.186Z,-83
2019-04-30T23:32:40.559Z,-83
2019-04-30T23:35:12.510Z,-84
2019-04-30T23:37:44.411Z,-83
2019-04-30T23:40:46.741Z,-83
2019-04-30T23:43:19.083Z,-83
2019-04-30T23:45:51.100Z,-85
2019-04-30T23:48:22.898Z,-85
2019-04-30T23:50:54.759Z,-83
2019-04-30T23:53:26.834Z,-83
2019-04-30T23:55:59.006Z,-84
2019-04-30T23:58:30.842Z,-84
